Flight Briefing for CMB848

Departure Arrival
Bahrain International Airport (OBBI)
Click to view FAA NOTAMS
Naval Station Rota (LERT)
Click to view FAA NOTAMS
Departure Time Arrival Time
N/A N/A
Aircraft Distance
B757-200SF 2947nm
Departure METAR Arrival METAR
OBBI 181600Z 02005KT 350V050 CAVOK 21/10 Q1018 NOSIG LERT 181600Z 27011KT 9999 FEW040 17/12 Q1020 NOSIG
Suggested Route
NARMI N697 KITOT SISIK UN697 MENLI L677 CVO A1 NOZ A1 METRU P868 ARLOS T340 EVLIB M871 XATOS UM871 SOTAX UN733 CDP R59 ALT MGA


View recent IFR Routes data
Notes
USTRANSCOM CONTRACT FLIGHT

Charts and Procedures

Charts for OBBI
No chart available
Charts for LERT
No chart available

Windy.com Weather Map